Tuesday, December 18, 2018, 4:14 PM EST
Back to Local

KBED, Bedford Hanscom Field

Location: Concord, MA, United States Lat: 42.467
Local Time: 4:14 PM EST (21:14 GMT) Lon: -71.3
Time Zone: US/Eastern Elev: 134 ft

Show me the last for .
Show Decoded

2018-12-18 14:56 METAR KBED 181956Z 30012G23KT 10SM CLR 00/M12 A2990 RMK AO2 PK WND 34027/1918
                 SLP143 T00001122 =
2018-12-18 13:56 METAR KBED 181856Z 30018G26KT 10SM FEW040 00/M12 A2987 RMK AO2 PK WND 32030/1801
                 SLP130 T00001122 =
2018-12-18 12:56 METAR KBED 181756Z 31017G28KT 10SM CLR M01/M12 A2985 RMK AO2 PK WND 32030/1737
                 SLP123 T10061122 11006 21044 51002 =
2018-12-18 11:56 METAR KBED 181656Z 33016G22KT 10SM CLR M01/M12 A2985 RMK AO2 PK WND 32030/1639
                 SLP123 T10061122 =
2018-12-18 10:56 METAR KBED 181556Z 32022G29KT 10SM FEW095 M02/M13 A2985 RMK AO2 PK WND
                 33033/1522 SLP123 T10171128 =
2018-12-18 09:56 METAR KBED 181456Z 31017G34KT 10SM SCT095 M02/M13 A2984 RMK AO2 PK WND
                 33034/1451 SLP121 T10221128 51031 =
2018-12-18 08:56 METAR KBED 181356Z 31012G23KT 10SM SCT070 M03/M13 A2982 RMK AO2 PK WND
                 31032/1331 SLP114 T10331128 =
2018-12-18 07:56 METAR KBED 181256Z 31017G28KT 10SM FEW080 SCT250 M04/M13 A2979 RMK AO2 PK WND
                 29032/1209 SLP103 T10441133 =
2018-12-18 06:56 METAR KBED 181156Z 32019G27KT 10SM FEW080 OVC250 M04/M13 A2975 RMK AO2 PK WND
                 29033/1107 SLP090 60000 70001 T10441133 10006 21044 51025 =
2018-12-18 05:56 METAR KBED 181056Z AUTO 31016G31KT 10SM FEW045 OVC095 M04/M13 A2973 RMK AO2 PK
                 WND 32034/1015 SLP084 T10441133 =
2018-12-18 04:56 METAR KBED 180956Z AUTO 30025G34KT 10SM BKN046 OVC060 M04/M13 A2971 RMK AO2 PK
                 WND 29034/0905 SLP075 T10441133 =
2018-12-18 03:56 METAR KBED 180856Z AUTO 31022G36KT 10SM FEW047 BKN080 OVC100 M03/M13 A2967 RMK
                 AO2 PK WND 29036/0852 SLP064 60000 T10331128 53036 =
2018-12-18 02:56 METAR KBED 180756Z AUTO 30022G31KT 10SM BKN043 BKN070 OVC100 M01/M10 A2962 RMK
                 AO2 PK WND 30034/0703 SLP046 T10111100 =
2018-12-18 01:56 METAR KBED 180656Z AUTO 30022G29KT 10SM FEW070 BKN110 M01/M09 A2960 RMK AO2 PK
                 WND 31038/0630 UPB18E20SNE18 SLP038 P0000 T10061094 =
2018-12-18 01:11 METAR KBED 180611Z AUTO 31020G34KT 9SM -SN FEW009 BKN036 OVC048 01/M07 A2957 RMK
                 AO2 PK WND 32035/0558 P0000 T00061072 =
2018-12-18 01:03 METAR KBED 180603Z AUTO 33022G35KT 2SM R11/4500VP6000FT -SN SCT008 BKN034 OVC042
                 01/M05 A2957 RMK AO2 PK WND 32035/0558 P0000 T00061050 =
2018-12-18 00:56 METAR KBED 180556Z AUTO 33019G27KT 1SM R11/4500VP6000FT -SN FEW008 BKN011 OVC039
                 01/M02 A2957 RMK AO2 PK WND 29031/0532 SNB26 SLP027 P0000 60000 T00061022 10033
                 20006 53004 =
2018-12-18 00:52 METAR KBED 180552Z AUTO 31015KT 1 3/4SM R11/5000VP6000FT -SN FEW008 BKN015
                 OVC032 01/M02 A2956 RMK AO2 PK WND 29031/0532 SNB26 P0000 =
2018-12-18 00:48 METAR KBED 180548Z AUTO 29014G21KT 2SM R11/6000VP6000FT -SN SCT017 BKN031 OVC042
                 01/M02 A2955 RMK AO2 PK WND 29031/0532 SNB26 P0000 T00061022 =
2018-12-18 00:40 METAR KBED 180540Z AUTO 28014G31KT 1SM R11/5000VP6000FT -SN BKN015 BKN031 OVC044
                 01/M03 A2955 RMK AO2 PK WND 29031/0532 SNB26 P0000 T00111028 =
2018-12-18 00:33 METAR KBED 180533Z AUTO 29026G31KT 2SM -SN BKN019 BKN043 OVC085 02/M04 A2955 RMK
                 AO2 PK WND 29031/0532 SNB26 P0000 T00171039 =
2018-12-17 23:56 METAR KBED 180456Z AUTO 27008G17KT 10SM SCT037 BKN049 OVC110 03/M03 A2953 RMK
                 AO2 SLP016 T00281033 400500011 =
2018-12-17 22:56 METAR KBED 180356Z AUTO 27009KT 10SM FEW043 OVC080 03/M03 A2955 RMK AO2 SLP020
                 T00281028 =
2018-12-17 21:56 METAR KBED 180256Z 26007KT 10SM OVC080 03/M03 A2955 RMK AO2 SLP023 T00281033
                 58001 =
2018-12-17 20:56 METAR KBED 180156Z 27010KT 10SM BKN075 03/M03 A2956 RMK AO2 SLP023 T00331033 =
2018-12-17 19:56 METAR KBED 180056Z 27010KT 10SM FEW075 02/M03 A2956 RMK AO2 SLP025 T00221033 =
2018-12-17 18:56 METAR KBED 172356Z 28009KT 10SM FEW075 03/M03 A2956 RMK AO2 SLP024 60000
                 T00281028 10050 20028 53013 =
2018-12-17 17:56 METAR KBED 172256Z 28008KT 10SM BKN075 03/M02 A2954 RMK AO2 SLP019 T00331017 =
2018-12-17 16:56 METAR KBED 172156Z 29009KT 10SM BKN048 OVC070 04/M01 A2953 RMK AO2 SLP013
                 T00391011 =

Support USWX by starting your Amazon purchase here.